Terminal Aerodrome Forecast
Issued by NWS

Home | Current Version | Previous Version | Text Only | Print | Product List | Glossary On
Versions: 1 2 3 4 5 6 7 8 9 10 11 12 13 14 15 16 17
166
FTUS45 KREV 241130
TAFMMH
TAF
KMMH 241130Z 2412/2512 VRB03KT 2SM BR SCT007
     FM241700 29006KT P6SM SCT060 BKN120
     FM250600 VRB03KT P6SM BCFG SCT005=

USA.gov is the U.S. government's official web portal to all federal, state and local government web resources and services.